F\v Tenia — FPMH — position and weather

sailwx.info

Track history (hours):
 
Tides and Currents Weather Stations Pressure Air Temp Water Temp Dewpoint Dewpoint Depression Visibility Wind Speed Wind Dir Waves Ship Positions

F\v Tenia

Last reported at 2015-May-03 19:33 UTC. Time now 2015-May-23 14:57 UTC.
Position N 43°40' W 005°13'.
Warning: this ship's position is 19 days out of date.

Length 22 m; draft 4 m.

Type: Fishing. MMSI: 227575000.

Date/timePositionNaut miles runAvg speedWind from/ knotsBaromVisibWave heightAir tempDewpointWater temp
2015-May-03 19:33N 43°40' W 005°13'  
2015-May-01 00:03N 44°38' W 002°06'5 0.6
2015-Apr-30 15:05N 44°42' W 002°02'0 0.6
2015-Apr-30 14:33N 44°42' W 002°03'1 1.0
2015-Apr-30 13:34N 44°43' W 002°03'1 0.8
2015-Apr-30 12:21N 44°43' W 002°04'4 0.2
2015-Apr-29 06:32N 44°39' W 002°02'0 0.3
2015-Apr-29 05:10N 44°39' W 002°02'0 0.2
2015-Apr-29 04:31N 44°39' W 002°02'3 0.5
2015-Apr-28 23:13N 44°36' W 002°02'1 0.0
2015-Apr-27 18:07N 44°37' W 002°02'2 0.0
2015-Apr-25 20:31N 44°38' W 002°00'1 0.7
2015-Apr-25 19:18N 44°38' W 002°01'1 0.9
2015-Apr-25 18:31N 44°38' W 002°02'1 0.5
2015-Apr-25 17:32N 44°37' W 002°02'2 0.6
2015-Apr-25 14:20N 44°35' W 002°03'1 0.9
2015-Apr-25 13:33N 44°35' W 002°04'1 0.9
2015-Apr-25 12:34N 44°36' W 002°05'1 0.9
2015-Apr-25 11:34N 44°37' W 002°06'0 0.3
2015-Apr-25 10:33N 44°37' W 002°06'1 0.6
2015-Apr-25 09:33N 44°36' W 002°05'0 0.3
2015-Apr-25 08:06N 44°37' W 002°05'1 2.0
2015-Apr-25 07:25N 44°36' W 002°03'0 0.3
2015-Apr-25 05:31N 44°37' W 002°04'0 0.5
2015-Apr-25 04:33N 44°37' W 002°05'2 1.9
2015-Apr-25 03:33N 44°38' W 002°03'1 1.2
2015-Apr-25 02:33N 44°38' W 002°02'3 2.8
2015-Apr-25 01:32N 44°37' W 002°06'5 2.1
2015-Apr-24 23:23N 44°40' W 002°01'1 0.7
2015-Apr-24 21:33N 44°39' W 002°00'1 0.7
2015-Apr-24 20:22N 44°38' W 002°01'1 0.7
2015-Apr-24 18:33N 44°37' W 002°02'1 0.5
2015-Apr-24 17:31N 44°37' W 002°02'0 0.5
2015-Apr-24 16:33N 44°36' W 002°02'1 0.7
2015-Apr-24 15:31N 44°36' W 002°03'1 1.0
2015-Apr-24 14:32N 44°35' W 002°04'2 0.3
2015-Apr-24 09:19N 44°36' W 002°04'1 0.9
2015-Apr-24 08:17N 44°37' W 002°05'0 0.1
2015-Apr-24 06:31N 44°37' W 002°05'0 0.2
2015-Apr-24 05:31N 44°37' W 002°05'0 0.2
2015-Apr-24 04:33N 44°37' W 002°05'3 2.5
2015-Apr-24 03:33N 44°39' W 002°03'2 1.9
2015-Apr-24 02:33N 44°37' W 002°02'3 2.8
2015-Apr-24 01:33N 44°37' W 002°06'3 0.7
2015-Apr-23 21:13N 44°37' W 002°02'1 0.8
2015-Apr-23 20:31N 44°38' W 002°01'  
Track history (hours):
 
Tides and Currents Weather Stations Pressure Air Temp Water Temp Dewpoint Dewpoint Depression Visibility Wind Speed Wind Dir Waves Ship Positions

F\v Tenia

Last reported at 2015-May-03 19:33 UTC. Time now 2015-May-23 14:57 UTC.
Position N 43°40' W 005°13'.
Warning: this ship's position is 19 days out of date.

Length 22 m; draft 4 m.

Type: Fishing. MMSI: 227575000.

Date/timePositionNaut miles runAvg speedWind from/ knotsBaromVisibWave heightAir tempDewpointWater temp
2015-May-03 19:33N 43°40' W 005°13'  
2015-May-01 00:03N 44°38' W 002°06'5 0.6
2015-Apr-30 15:05N 44°42' W 002°02'0 0.6
2015-Apr-30 14:33N 44°42' W 002°03'1 1.0
2015-Apr-30 13:34N 44°43' W 002°03'1 0.8
2015-Apr-30 12:21N 44°43' W 002°04'4 0.2
2015-Apr-29 06:32N 44°39' W 002°02'0 0.3
2015-Apr-29 05:10N 44°39' W 002°02'0 0.2
2015-Apr-29 04:31N 44°39' W 002°02'3 0.5
2015-Apr-28 23:13N 44°36' W 002°02'1 0.0
2015-Apr-27 18:07N 44°37' W 002°02'2 0.0
2015-Apr-25 20:31N 44°38' W 002°00'1 0.7
2015-Apr-25 19:18N 44°38' W 002°01'1 0.9
2015-Apr-25 18:31N 44°38' W 002°02'1 0.5
2015-Apr-25 17:32N 44°37' W 002°02'2 0.6
2015-Apr-25 14:20N 44°35' W 002°03'1 0.9
2015-Apr-25 13:33N 44°35' W 002°04'1 0.9
2015-Apr-25 12:34N 44°36' W 002°05'1 0.9
2015-Apr-25 11:34N 44°37' W 002°06'0 0.3
2015-Apr-25 10:33N 44°37' W 002°06'1 0.6
2015-Apr-25 09:33N 44°36' W 002°05'0 0.3
2015-Apr-25 08:06N 44°37' W 002°05'1 2.0
2015-Apr-25 07:25N 44°36' W 002°03'0 0.3
2015-Apr-25 05:31N 44°37' W 002°04'0 0.5
2015-Apr-25 04:33N 44°37' W 002°05'2 1.9
2015-Apr-25 03:33N 44°38' W 002°03'1 1.2
2015-Apr-25 02:33N 44°38' W 002°02'3 2.8
2015-Apr-25 01:32N 44°37' W 002°06'5 2.1
2015-Apr-24 23:23N 44°40' W 002°01'1 0.7
2015-Apr-24 21:33N 44°39' W 002°00'1 0.7
2015-Apr-24 20:22N 44°38' W 002°01'1 0.7
2015-Apr-24 18:33N 44°37' W 002°02'1 0.5
2015-Apr-24 17:31N 44°37' W 002°02'0 0.5
2015-Apr-24 16:33N 44°36' W 002°02'1 0.7
2015-Apr-24 15:31N 44°36' W 002°03'1 1.0
2015-Apr-24 14:32N 44°35' W 002°04'2 0.3
2015-Apr-24 09:19N 44°36' W 002°04'1 0.9
2015-Apr-24 08:17N 44°37' W 002°05'0 0.1
2015-Apr-24 06:31N 44°37' W 002°05'0 0.2
2015-Apr-24 05:31N 44°37' W 002°05'0 0.2
2015-Apr-24 04:33N 44°37' W 002°05'3 2.5
2015-Apr-24 03:33N 44°39' W 002°03'2 1.9
2015-Apr-24 02:33N 44°37' W 002°02'3 2.8
2015-Apr-24 01:33N 44°37' W 002°06'3 0.7
2015-Apr-23 21:13N 44°37' W 002°02'1 0.8
2015-Apr-23 20:31N 44°38' W 002°01'  

Dump ship's entire track history